sensor_id;sensor_type;location;lat;lon;timestamp;P1;durP1;ratioP1;P2;durP2;ratioP2
11616;SDS011;5864;52.998;9.068;2023-01-10T00:02:07;13.73;;;8.37;;
11616;SDS011;5864;52.998;9.068;2023-01-10T00:04:34;15.03;;;8.60;;
11616;SDS011;5864;52.998;9.068;2023-01-10T00:07:03;12.17;;;7.17;;
11616;SDS011;5864;52.998;9.068;2023-01-10T00:09:33;14.37;;;7.37;;
11616;SDS011;5864;52.998;9.068;2023-01-10T00:12:01;15.50;;;8.47;;
11616;SDS011;5864;52.998;9.068;2023-01-10T00:15:00;13.70;;;8.33;;
11616;SDS011;5864;52.998;9.068;2023-01-10T00:17:30;15.43;;;8.50;;
11616;SDS011;5864;52.998;9.068;2023-01-10T00:19:58;16.47;;;8.57;;
11616;SDS011;5864;52.998;9.068;2023-01-10T00:22:27;13.43;;;7.93;;
11616;SDS011;5864;52.998;9.068;2023-01-10T00:24:54;9.77;;;7.50;;
11616;SDS011;5864;52.998;9.068;2023-01-10T00:27:21;16.03;;;8.40;;
11616;SDS011;5864;52.998;9.068;2023-01-10T00:29:49;14.00;;;8.70;;
11616;SDS011;5864;52.998;9.068;2023-01-10T00:32:18;17.73;;;8.43;;
11616;SDS011;5864;52.998;9.068;2023-01-10T00:34:45;12.67;;;8.00;;
11616;SDS011;5864;52.998;9.068;2023-01-10T00:37:13;13.67;;;8.20;;
11616;SDS011;5864;52.998;9.068;2023-01-10T00:39:42;12.90;;;8.37;;
11616;SDS011;5864;52.998;9.068;2023-01-10T00:42:10;10.87;;;7.33;;
11616;SDS011;5864;52.998;9.068;2023-01-10T00:44:55;14.90;;;8.57;;
11616;SDS011;5864;52.998;9.068;2023-01-10T00:47:22;15.53;;;8.10;;
11616;SDS011;5864;52.998;9.068;2023-01-10T00:49:50;16.40;;;7.70;;
11616;SDS011;5864;52.998;9.068;2023-01-10T00:52:17;13.70;;;8.00;;
11616;SDS011;5864;52.998;9.068;2023-01-10T00:54:46;16.53;;;8.03;;
11616;SDS011;5864;52.998;9.068;2023-01-10T00:57:14;14.50;;;8.37;;
11616;SDS011;5864;52.998;9.068;2023-01-10T00:59:41;12.20;;;7.80;;
11616;SDS011;5864;52.998;9.068;2023-01-10T01:02:10;15.63;;;8.57;;
11616;SDS011;5864;52.998;9.068;2023-01-10T01:04:37;16.97;;;8.33;;
11616;SDS011;5864;52.998;9.068;2023-01-10T01:07:04;15.73;;;8.03;;
11616;SDS011;5864;52.998;9.068;2023-01-10T01:09:32;13.77;;;8.07;;
11616;SDS011;5864;52.998;9.068;2023-01-10T01:12:21;12.27;;;8.03;;
11616;SDS011;5864;52.998;9.068;2023-01-10T01:14:48;16.97;;;8.37;;
11616;SDS011;5864;52.998;9.068;2023-01-10T01:17:16;13.80;;;7.67;;
11616;SDS011;5864;52.998;9.068;2023-01-10T01:19:44;12.90;;;7.77;;
11616;SDS011;5864;52.998;9.068;2023-01-10T01:22:11;12.20;;;7.63;;
11616;SDS011;5864;52.998;9.068;2023-01-10T01:24:39;11.17;;;7.33;;
11616;SDS011;5864;52.998;9.068;2023-01-10T01:27:07;11.60;;;7.90;;
11616;SDS011;5864;52.998;9.068;2023-01-10T01:29:36;10.80;;;6.87;;
11616;SDS011;5864;52.998;9.068;2023-01-10T01:32:03;14.63;;;7.37;;
11616;SDS011;5864;52.998;9.068;2023-01-10T01:34:31;14.00;;;7.10;;
11616;SDS011;5864;52.998;9.068;2023-01-10T01:36:58;14.90;;;6.80;;
11616;SDS011;5864;52.998;9.068;2023-01-10T01:39:26;16.10;;;6.83;;
11616;SDS011;5864;52.998;9.068;2023-01-10T01:41:53;9.57;;;6.30;;
11616;SDS011;5864;52.998;9.068;2023-01-10T01:44:26;12.27;;;6.50;;
11616;SDS011;5864;52.998;9.068;2023-01-10T01:46:59;10.67;;;5.70;;
11616;SDS011;5864;52.998;9.068;2023-01-10T01:49:28;9.53;;;5.83;;
11616;SDS011;5864;52.998;9.068;2023-01-10T01:51:59;13.63;;;6.07;;
11616;SDS011;5864;52.998;9.068;2023-01-10T01:54:31;9.57;;;5.67;;
11616;SDS011;5864;52.998;9.068;2023-01-10T01:57:00;14.13;;;5.80;;
11616;SDS011;5864;52.998;9.068;2023-01-10T01:59:31;12.13;;;5.67;;
11616;SDS011;5864;52.998;9.068;2023-01-10T02:02:03;8.17;;;4.73;;
11616;SDS011;5864;52.998;9.068;2023-01-10T02:04:36;9.83;;;5.30;;
11616;SDS011;5864;52.998;9.068;2023-01-10T02:07:07;9.63;;;4.73;;
11616;SDS011;5864;52.998;9.068;2023-01-10T02:09:36;7.47;;;4.70;;
11616;SDS011;5864;52.998;9.068;2023-01-10T02:12:09;10.33;;;4.83;;
11616;SDS011;5864;52.998;9.068;2023-01-10T02:14:38;9.47;;;5.20;;
11616;SDS011;5864;52.998;9.068;2023-01-10T02:17:09;8.97;;;4.40;;
11616;SDS011;5864;52.998;9.068;2023-01-10T02:19:40;9.70;;;4.87;;
11616;SDS011;5864;52.998;9.068;2023-01-10T02:31:24;6.63;;;4.60;;
11616;SDS011;5864;52.998;9.068;2023-01-10T02:34:16;8.17;;;4.40;;
11616;SDS011;5864;52.998;9.068;2023-01-10T02:36:51;14.03;;;5.67;;
11616;SDS011;5864;52.998;9.068;2023-01-10T02:39:24;6.63;;;4.50;;
11616;SDS011;5864;52.998;9.068;2023-01-10T02:41:57;9.27;;;4.23;;
11616;SDS011;5864;52.998;9.068;2023-01-10T02:44:30;10.27;;;4.30;;
11616;SDS011;5864;52.998;9.068;2023-01-10T02:47:06;8.90;;;4.47;;
11616;SDS011;5864;52.998;9.068;2023-01-10T02:49:41;6.57;;;4.27;;
11616;SDS011;5864;52.998;9.068;2023-01-10T02:52:09;10.93;;;4.43;;
11616;SDS011;5864;52.998;9.068;2023-01-10T02:54:38;6.43;;;4.00;;
11616;SDS011;5864;52.998;9.068;2023-01-10T03:00:15;7.57;;;3.73;;
11616;SDS011;5864;52.998;9.068;2023-01-10T03:02:59;10.03;;;3.50;;
11616;SDS011;5864;52.998;9.068;2023-01-10T03:05:40;5.57;;;3.30;;
11616;SDS011;5864;52.998;9.068;2023-01-10T03:08:26;6.37;;;3.73;;
11616;SDS011;5864;52.998;9.068;2023-01-10T03:11:00;8.43;;;4.00;;
11616;SDS011;5864;52.998;9.068;2023-01-10T03:13:30;6.03;;;3.60;;
11616;SDS011;5864;52.998;9.068;2023-01-10T03:16:03;7.43;;;3.70;;
11616;SDS011;5864;52.998;9.068;2023-01-10T03:18:37;9.67;;;4.10;;
11616;SDS011;5864;52.998;9.068;2023-01-10T03:21:12;10.33;;;3.40;;
11616;SDS011;5864;52.998;9.068;2023-01-10T03:23:40;7.47;;;3.13;;
11616;SDS011;5864;52.998;9.068;2023-01-10T03:26:08;9.73;;;3.70;;
11616;SDS011;5864;52.998;9.068;2023-01-10T03:28:40;9.53;;;3.60;;
11616;SDS011;5864;52.998;9.068;2023-01-10T03:31:14;9.50;;;3.80;;
11616;SDS011;5864;52.998;9.068;2023-01-10T03:33:44;7.13;;;3.30;;
11616;SDS011;5864;52.998;9.068;2023-01-10T03:36:16;7.33;;;3.27;;
11616;SDS011;5864;52.998;9.068;2023-01-10T03:38:56;9.30;;;3.97;;
11616;SDS011;5864;52.998;9.068;2023-01-10T03:41:32;7.43;;;3.20;;
11616;SDS011;5864;52.998;9.068;2023-01-10T03:44:06;11.10;;;4.00;;
11616;SDS011;5864;52.998;9.068;2023-01-10T03:46:59;15.83;;;4.53;;
11616;SDS011;5864;52.998;9.068;2023-01-10T03:49:31;8.43;;;3.20;;
11616;SDS011;5864;52.998;9.068;2023-01-10T03:52:03;8.77;;;3.63;;
11616;SDS011;5864;52.998;9.068;2023-01-10T03:54:31;8.93;;;3.40;;
11616;SDS011;5864;52.998;9.068;2023-01-10T03:56:59;7.90;;;3.00;;
11616;SDS011;5864;52.998;9.068;2023-01-10T03:59:26;8.10;;;3.20;;
11616;SDS011;5864;52.998;9.068;2023-01-10T04:01:55;9.33;;;3.47;;
11616;SDS011;5864;52.998;9.068;2023-01-10T04:04:22;13.27;;;3.67;;
11616;SDS011;5864;52.998;9.068;2023-01-10T04:06:50;9.97;;;3.30;;
11616;SDS011;5864;52.998;9.068;2023-01-10T04:09:19;6.53;;;3.43;;
11616;SDS011;5864;52.998;9.068;2023-01-10T04:11:47;8.40;;;3.10;;
11616;SDS011;5864;52.998;9.068;2023-01-10T04:14:14;6.90;;;3.20;;
11616;SDS011;5864;52.998;9.068;2023-01-10T04:16:41;11.70;;;3.33;;
11616;SDS011;5864;52.998;9.068;2023-01-10T04:19:09;7.40;;;3.20;;
11616;SDS011;5864;52.998;9.068;2023-01-10T04:21:37;9.07;;;3.00;;
11616;SDS011;5864;52.998;9.068;2023-01-10T04:24:05;12.13;;;4.57;;
11616;SDS011;5864;52.998;9.068;2023-01-10T04:26:35;8.53;;;3.27;;
11616;SDS011;5864;52.998;9.068;2023-01-10T04:29:02;6.07;;;3.00;;
11616;SDS011;5864;52.998;9.068;2023-01-10T04:31:30;6.93;;;2.70;;
11616;SDS011;5864;52.998;9.068;2023-01-10T04:33:58;7.93;;;3.40;;
11616;SDS011;5864;52.998;9.068;2023-01-10T04:36:28;7.97;;;3.37;;
11616;SDS011;5864;52.998;9.068;2023-01-10T04:38:56;8.07;;;3.13;;
11616;SDS011;5864;52.998;9.068;2023-01-10T04:41:23;9.97;;;3.30;;
11616;SDS011;5864;52.998;9.068;2023-01-10T04:43:52;7.43;;;3.47;;
11616;SDS011;5864;52.998;9.068;2023-01-10T04:46:20;6.07;;;3.00;;
11616;SDS011;5864;52.998;9.068;2023-01-10T04:48:47;12.07;;;3.93;;
11616;SDS011;5864;52.998;9.068;2023-01-10T04:51:15;10.53;;;3.83;;
11616;SDS011;5864;52.998;9.068;2023-01-10T04:53:42;11.20;;;3.87;;
11616;SDS011;5864;52.998;9.068;2023-01-10T04:56:13;14.37;;;4.13;;
11616;SDS011;5864;52.998;9.068;2023-01-10T04:58:42;10.60;;;4.10;;
11616;SDS011;5864;52.998;9.068;2023-01-10T05:01:11;6.87;;;3.50;;
11616;SDS011;5864;52.998;9.068;2023-01-10T05:03:41;10.13;;;3.57;;
11616;SDS011;5864;52.998;9.068;2023-01-10T05:06:09;11.50;;;4.20;;
11616;SDS011;5864;52.998;9.068;2023-01-10T05:08:36;11.33;;;4.20;;
11616;SDS011;5864;52.998;9.068;2023-01-10T05:11:04;12.47;;;4.00;;
11616;SDS011;5864;52.998;9.068;2023-01-10T05:13:31;9.50;;;4.30;;
11616;SDS011;5864;52.998;9.068;2023-01-10T05:15:59;11.83;;;4.47;;
11616;SDS011;5864;52.998;9.068;2023-01-10T05:18:28;11.60;;;3.33;;
11616;SDS011;5864;52.998;9.068;2023-01-10T05:20:58;9.67;;;3.43;;
11616;SDS011;5864;52.998;9.068;2023-01-10T05:23:26;12.27;;;3.77;;
11616;SDS011;5864;52.998;9.068;2023-01-10T05:25:53;8.77;;;3.80;;
11616;SDS011;5864;52.998;9.068;2023-01-10T05:28:21;10.17;;;3.87;;
11616;SDS011;5864;52.998;9.068;2023-01-10T05:30:49;13.30;;;3.63;;
11616;SDS011;5864;52.998;9.068;2023-01-10T05:33:17;12.10;;;3.80;;
11616;SDS011;5864;52.998;9.068;2023-01-10T05:35:46;11.73;;;3.70;;
11616;SDS011;5864;52.998;9.068;2023-01-10T05:38:13;13.50;;;3.50;;
11616;SDS011;5864;52.998;9.068;2023-01-10T05:40:40;6.60;;;3.47;;
11616;SDS011;5864;52.998;9.068;2023-01-10T05:43:08;14.13;;;4.40;;
11616;SDS011;5864;52.998;9.068;2023-01-10T05:45:36;10.20;;;3.63;;
11616;SDS011;5864;52.998;9.068;2023-01-10T05:48:04;10.50;;;3.50;;
11616;SDS011;5864;52.998;9.068;2023-01-10T05:50:32;13.63;;;3.80;;
11616;SDS011;5864;52.998;9.068;2023-01-10T05:53:01;8.63;;;3.97;;
11616;SDS011;5864;52.998;9.068;2023-01-10T05:55:30;9.97;;;3.50;;
11616;SDS011;5864;52.998;9.068;2023-01-10T05:57:59;10.87;;;3.73;;
11616;SDS011;5864;52.998;9.068;2023-01-10T06:00:26;15.17;;;4.33;;
11616;SDS011;5864;52.998;9.068;2023-01-10T06:02:54;10.27;;;3.70;;
11616;SDS011;5864;52.998;9.068;2023-01-10T06:05:23;11.13;;;4.10;;
11616;SDS011;5864;52.998;9.068;2023-01-10T06:07:50;10.70;;;3.60;;
11616;SDS011;5864;52.998;9.068;2023-01-10T06:10:19;13.87;;;4.67;;
11616;SDS011;5864;52.998;9.068;2023-01-10T06:12:47;12.37;;;3.83;;
11616;SDS011;5864;52.998;9.068;2023-01-10T06:15:14;12.23;;;3.47;;
11616;SDS011;5864;52.998;9.068;2023-01-10T06:17:42;9.60;;;3.20;;
11616;SDS011;5864;52.998;9.068;2023-01-10T06:20:10;12.70;;;3.40;;
11616;SDS011;5864;52.998;9.068;2023-01-10T06:22:38;11.20;;;3.67;;
11616;SDS011;5864;52.998;9.068;2023-01-10T06:25:08;12.10;;;4.07;;
11616;SDS011;5864;52.998;9.068;2023-01-10T06:27:38;12.57;;;3.30;;
11616;SDS011;5864;52.998;9.068;2023-01-10T06:30:07;20.83;;;4.67;;
11616;SDS011;5864;52.998;9.068;2023-01-10T06:32:36;15.50;;;4.60;;
11616;SDS011;5864;52.998;9.068;2023-01-10T06:35:05;10.53;;;3.27;;
11616;SDS011;5864;52.998;9.068;2023-01-10T06:37:33;10.47;;;4.00;;
11616;SDS011;5864;52.998;9.068;2023-01-10T06:40:00;12.30;;;4.10;;
11616;SDS011;5864;52.998;9.068;2023-01-10T06:42:28;14.10;;;3.57;;
11616;SDS011;5864;52.998;9.068;2023-01-10T06:44:57;13.07;;;3.93;;
11616;SDS011;5864;52.998;9.068;2023-01-10T06:47:24;14.33;;;3.63;;
11616;SDS011;5864;52.998;9.068;2023-01-10T06:49:51;10.73;;;3.93;;
11616;SDS011;5864;52.998;9.068;2023-01-10T06:52:19;12.20;;;3.63;;
11616;SDS011;5864;52.998;9.068;2023-01-10T06:54:46;12.90;;;4.20;;
11616;SDS011;5864;52.998;9.068;2023-01-10T06:57:17;12.87;;;3.50;;
11616;SDS011;5864;52.998;9.068;2023-01-10T06:59:45;10.43;;;3.60;;
11616;SDS011;5864;52.998;9.068;2023-01-10T07:02:15;16.20;;;3.70;;
11616;SDS011;5864;52.998;9.068;2023-01-10T07:04:42;10.63;;;3.77;;
11616;SDS011;5864;52.998;9.068;2023-01-10T07:07:09;15.30;;;4.87;;
11616;SDS011;5864;52.998;9.068;2023-01-10T07:09:37;12.00;;;3.90;;
11616;SDS011;5864;52.998;9.068;2023-01-10T07:12:04;10.70;;;3.93;;
11616;SDS011;5864;52.998;9.068;2023-01-10T07:14:32;13.40;;;3.60;;
11616;SDS011;5864;52.998;9.068;2023-01-10T07:17:02;14.70;;;4.43;;
11616;SDS011;5864;52.998;9.068;2023-01-10T07:19:31;12.27;;;4.03;;
11616;SDS011;5864;52.998;9.068;2023-01-10T07:21:58;15.20;;;4.17;;
11616;SDS011;5864;52.998;9.068;2023-01-10T07:24:26;11.20;;;4.07;;
11616;SDS011;5864;52.998;9.068;2023-01-10T07:26:54;12.77;;;4.20;;
11616;SDS011;5864;52.998;9.068;2023-01-10T07:29:21;15.67;;;4.30;;
11616;SDS011;5864;52.998;9.068;2023-01-10T07:31:49;12.37;;;4.37;;
11616;SDS011;5864;52.998;9.068;2023-01-10T07:34:17;12.97;;;4.33;;
11616;SDS011;5864;52.998;9.068;2023-01-10T07:36:46;13.03;;;4.40;;
11616;SDS011;5864;52.998;9.068;2023-01-10T07:39:16;12.80;;;5.23;;
11616;SDS011;5864;52.998;9.068;2023-01-10T07:41:45;13.10;;;4.30;;
11616;SDS011;5864;52.998;9.068;2023-01-10T07:44:13;12.37;;;4.13;;
11616;SDS011;5864;52.998;9.068;2023-01-10T07:46:41;15.20;;;4.90;;
11616;SDS011;5864;52.998;9.068;2023-01-10T07:49:08;16.37;;;4.73;;
11616;SDS011;5864;52.998;9.068;2023-01-10T07:51:37;9.40;;;4.23;;
11616;SDS011;5864;52.998;9.068;2023-01-10T07:54:05;12.80;;;4.80;;
11616;SDS011;5864;52.998;9.068;2023-01-10T07:56:33;14.53;;;5.10;;
11616;SDS011;5864;52.998;9.068;2023-01-10T07:59:00;13.63;;;4.90;;
11616;SDS011;5864;52.998;9.068;2023-01-10T08:01:28;11.67;;;4.40;;
11616;SDS011;5864;52.998;9.068;2023-01-10T08:03:55;11.53;;;4.70;;
11616;SDS011;5864;52.998;9.068;2023-01-10T08:06:23;11.37;;;4.93;;
11616;SDS011;5864;52.998;9.068;2023-01-10T08:08:51;10.67;;;5.73;;
11616;SDS011;5864;52.998;9.068;2023-01-10T08:11:20;10.67;;;4.30;;
11616;SDS011;5864;52.998;9.068;2023-01-10T08:13:47;15.20;;;4.50;;
11616;SDS011;5864;52.998;9.068;2023-01-10T08:16:15;12.00;;;5.03;;
11616;SDS011;5864;52.998;9.068;2023-01-10T08:18:45;17.57;;;5.40;;
11616;SDS011;5864;52.998;9.068;2023-01-10T08:21:12;13.90;;;4.77;;
11616;SDS011;5864;52.998;9.068;2023-01-10T08:23:40;17.27;;;4.37;;
11616;SDS011;5864;52.998;9.068;2023-01-10T08:26:07;12.67;;;5.10;;
11616;SDS011;5864;52.998;9.068;2023-01-10T08:28:36;11.93;;;5.10;;
11616;SDS011;5864;52.998;9.068;2023-01-10T08:31:04;11.40;;;4.40;;
11616;SDS011;5864;52.998;9.068;2023-01-10T08:33:32;13.43;;;5.20;;
11616;SDS011;5864;52.998;9.068;2023-01-10T08:36:00;14.70;;;5.23;;
11616;SDS011;5864;52.998;9.068;2023-01-10T08:38:27;13.47;;;4.30;;
11616;SDS011;5864;52.998;9.068;2023-01-10T08:40:55;11.67;;;4.57;;
11616;SDS011;5864;52.998;9.068;2023-01-10T08:43:23;14.23;;;4.77;;
11616;SDS011;5864;52.998;9.068;2023-01-10T08:45:52;13.40;;;4.80;;
11616;SDS011;5864;52.998;9.068;2023-01-10T08:48:19;13.60;;;3.80;;
11616;SDS011;5864;52.998;9.068;2023-01-10T08:50:47;9.67;;;4.10;;
11616;SDS011;5864;52.998;9.068;2023-01-10T08:53:14;11.60;;;3.80;;
11616;SDS011;5864;52.998;9.068;2023-01-10T08:55:41;10.37;;;4.03;;
11616;SDS011;5864;52.998;9.068;2023-01-10T08:58:09;9.53;;;3.97;;
11616;SDS011;5864;52.998;9.068;2023-01-10T09:00:37;10.97;;;4.00;;
11616;SDS011;5864;52.998;9.068;2023-01-10T09:03:06;13.13;;;4.20;;
11616;SDS011;5864;52.998;9.068;2023-01-10T09:05:33;8.53;;;3.97;;
11616;SDS011;5864;52.998;9.068;2023-01-10T09:08:01;8.93;;;3.67;;
11616;SDS011;5864;52.998;9.068;2023-01-10T09:10:29;9.10;;;3.53;;
11616;SDS011;5864;52.998;9.068;2023-01-10T09:12:57;8.87;;;3.90;;
11616;SDS011;5864;52.998;9.068;2023-01-10T09:15:27;10.67;;;4.23;;
11616;SDS011;5864;52.998;9.068;2023-01-10T09:17:56;10.50;;;4.30;;
11616;SDS011;5864;52.998;9.068;2023-01-10T09:20:26;9.40;;;4.63;;
11616;SDS011;5864;52.998;9.068;2023-01-10T09:22:55;12.93;;;4.50;;
11616;SDS011;5864;52.998;9.068;2023-01-10T09:25:23;10.17;;;4.07;;
11616;SDS011;5864;52.998;9.068;2023-01-10T09:27:54;9.93;;;4.43;;
11616;SDS011;5864;52.998;9.068;2023-01-10T09:30:23;11.10;;;4.37;;
11616;SDS011;5864;52.998;9.068;2023-01-10T09:32:54;12.83;;;4.67;;
11616;SDS011;5864;52.998;9.068;2023-01-10T09:35:23;10.40;;;4.70;;
11616;SDS011;5864;52.998;9.068;2023-01-10T09:37:53;10.30;;;4.60;;
11616;SDS011;5864;52.998;9.068;2023-01-10T09:40:24;9.50;;;4.50;;
11616;SDS011;5864;52.998;9.068;2023-01-10T09:43:02;13.30;;;4.57;;
11616;SDS011;5864;52.998;9.068;2023-01-10T09:45:38;12.73;;;5.17;;
11616;SDS011;5864;52.998;9.068;2023-01-10T09:48:16;12.47;;;5.17;;
11616;SDS011;5864;52.998;9.068;2023-01-10T09:50:53;11.40;;;5.47;;
11616;SDS011;5864;52.998;9.068;2023-01-10T09:53:32;14.47;;;5.20;;
11616;SDS011;5864;52.998;9.068;2023-01-10T09:56:02;14.43;;;5.17;;
11616;SDS011;5864;52.998;9.068;2023-01-10T09:58:30;12.17;;;4.87;;
11616;SDS011;5864;52.998;9.068;2023-01-10T10:01:00;8.90;;;5.37;;
11616;SDS011;5864;52.998;9.068;2023-01-10T10:03:33;10.83;;;4.80;;
11616;SDS011;5864;52.998;9.068;2023-01-10T10:06:11;18.03;;;5.50;;
11616;SDS011;5864;52.998;9.068;2023-01-10T10:08:39;15.10;;;5.90;;
11616;SDS011;5864;52.998;9.068;2023-01-10T10:11:12;14.83;;;5.97;;
11616;SDS011;5864;52.998;9.068;2023-01-10T10:14:18;16.50;;;5.90;;
11616;SDS011;5864;52.998;9.068;2023-01-10T10:17:10;13.37;;;5.77;;
11616;SDS011;5864;52.998;9.068;2023-01-10T10:19:54;17.37;;;6.30;;
11616;SDS011;5864;52.998;9.068;2023-01-10T10:22:40;12.40;;;5.67;;
11616;SDS011;5864;52.998;9.068;2023-01-10T10:25:18;10.13;;;5.30;;
11616;SDS011;5864;52.998;9.068;2023-01-10T10:28:04;12.17;;;5.57;;
11616;SDS011;5864;52.998;9.068;2023-01-10T10:30:43;19.17;;;6.37;;
11616;SDS011;5864;52.998;9.068;2023-01-10T10:33:28;16.60;;;6.50;;
11616;SDS011;5864;52.998;9.068;2023-01-10T10:36:09;17.33;;;6.20;;
11616;SDS011;5864;52.998;9.068;2023-01-10T10:38:42;13.47;;;6.03;;
11616;SDS011;5864;52.998;9.068;2023-01-10T10:41:13;15.43;;;6.27;;
11616;SDS011;5864;52.998;9.068;2023-01-10T10:43:44;14.43;;;6.53;;
11616;SDS011;5864;52.998;9.068;2023-01-10T10:46:14;19.93;;;6.80;;
11616;SDS011;5864;52.998;9.068;2023-01-10T10:48:45;17.30;;;6.33;;
11616;SDS011;5864;52.998;9.068;2023-01-10T10:51:22;19.27;;;7.63;;
11616;SDS011;5864;52.998;9.068;2023-01-10T10:53:53;15.90;;;7.00;;
11616;SDS011;5864;52.998;9.068;2023-01-10T10:56:23;15.07;;;6.70;;
11616;SDS011;5864;52.998;9.068;2023-01-10T10:58:53;14.97;;;7.17;;
11616;SDS011;5864;52.998;9.068;2023-01-10T11:01:22;16.07;;;7.37;;
11616;SDS011;5864;52.998;9.068;2023-01-10T11:03:50;14.77;;;6.87;;
11616;SDS011;5864;52.998;9.068;2023-01-10T11:06:21;16.60;;;6.67;;
11616;SDS011;5864;52.998;9.068;2023-01-10T11:08:52;18.03;;;6.87;;
11616;SDS011;5864;52.998;9.068;2023-01-10T11:11:24;15.60;;;6.60;;
11616;SDS011;5864;52.998;9.068;2023-01-10T11:13:54;21.33;;;7.40;;
11616;SDS011;5864;52.998;9.068;2023-01-10T11:16:28;15.87;;;7.30;;
11616;SDS011;5864;52.998;9.068;2023-01-10T11:19:16;15.53;;;7.37;;
11616;SDS011;5864;52.998;9.068;2023-01-10T11:21:47;14.83;;;6.70;;
11616;SDS011;5864;52.998;9.068;2023-01-10T11:24:26;17.33;;;6.60;;
11616;SDS011;5864;52.998;9.068;2023-01-10T11:26:55;19.13;;;7.30;;
11616;SDS011;5864;52.998;9.068;2023-01-10T11:29:25;15.97;;;6.60;;
11616;SDS011;5864;52.998;9.068;2023-01-10T11:32:07;16.33;;;6.50;;
11616;SDS011;5864;52.998;9.068;2023-01-10T11:34:39;15.50;;;6.57;;
11616;SDS011;5864;52.998;9.068;2023-01-10T11:37:16;15.40;;;5.67;;
11616;SDS011;5864;52.998;9.068;2023-01-10T11:39:47;12.87;;;5.90;;
11616;SDS011;5864;52.998;9.068;2023-01-10T11:42:24;17.97;;;5.80;;
11616;SDS011;5864;52.998;9.068;2023-01-10T11:44:55;14.13;;;6.23;;
11616;SDS011;5864;52.998;9.068;2023-01-10T11:47:40;13.27;;;5.97;;
11616;SDS011;5864;52.998;9.068;2023-01-10T11:50:10;19.23;;;7.07;;
11616;SDS011;5864;52.998;9.068;2023-01-10T11:52:43;18.03;;;6.37;;
11616;SDS011;5864;52.998;9.068;2023-01-10T11:55:17;12.70;;;5.80;;
11616;SDS011;5864;52.998;9.068;2023-01-10T11:57:53;14.53;;;6.23;;
11616;SDS011;5864;52.998;9.068;2023-01-10T12:00:29;16.87;;;6.13;;
11616;SDS011;5864;52.998;9.068;2023-01-10T12:02:58;14.10;;;5.37;;
11616;SDS011;5864;52.998;9.068;2023-01-10T12:05:27;14.53;;;5.73;;
11616;SDS011;5864;52.998;9.068;2023-01-10T12:07:55;15.43;;;5.70;;
11616;SDS011;5864;52.998;9.068;2023-01-10T12:10:26;19.57;;;5.50;;
11616;SDS011;5864;52.998;9.068;2023-01-10T12:12:55;19.80;;;6.30;;
11616;SDS011;5864;52.998;9.068;2023-01-10T12:15:24;18.13;;;6.17;;
11616;SDS011;5864;52.998;9.068;2023-01-10T12:17:55;13.30;;;5.27;;
11616;SDS011;5864;52.998;9.068;2023-01-10T12:20:24;16.73;;;6.30;;
11616;SDS011;5864;52.998;9.068;2023-01-10T12:22:55;13.30;;;5.07;;
11616;SDS011;5864;52.998;9.068;2023-01-10T12:25:33;16.77;;;5.87;;
11616;SDS011;5864;52.998;9.068;2023-01-10T12:28:05;16.03;;;5.90;;
11616;SDS011;5864;52.998;9.068;2023-01-10T12:30:42;16.13;;;5.20;;
11616;SDS011;5864;52.998;9.068;2023-01-10T12:33:17;18.73;;;5.73;;
11616;SDS011;5864;52.998;9.068;2023-01-10T12:35:49;15.47;;;6.30;;
11616;SDS011;5864;52.998;9.068;2023-01-10T12:38:21;17.80;;;6.33;;
11616;SDS011;5864;52.998;9.068;2023-01-10T12:41:14;17.43;;;6.23;;
11616;SDS011;5864;52.998;9.068;2023-01-10T12:44:03;20.33;;;6.53;;
11616;SDS011;5864;52.998;9.068;2023-01-10T12:46:40;14.97;;;6.37;;
11616;SDS011;5864;52.998;9.068;2023-01-10T12:49:16;22.37;;;7.47;;
11616;SDS011;5864;52.998;9.068;2023-01-10T12:51:47;16.23;;;6.97;;
11616;SDS011;5864;52.998;9.068;2023-01-10T12:54:17;18.07;;;7.20;;
11616;SDS011;5864;52.998;9.068;2023-01-10T12:56:49;19.07;;;7.23;;
11616;SDS011;5864;52.998;9.068;2023-01-10T12:59:18;18.37;;;6.60;;
11616;SDS011;5864;52.998;9.068;2023-01-10T13:01:50;15.73;;;6.57;;
11616;SDS011;5864;52.998;9.068;2023-01-10T13:04:20;21.23;;;6.87;;
11616;SDS011;5864;52.998;9.068;2023-01-10T13:06:51;25.60;;;8.47;;
11616;SDS011;5864;52.998;9.068;2023-01-10T13:09:21;17.73;;;7.50;;
11616;SDS011;5864;52.998;9.068;2023-01-10T13:11:53;18.73;;;6.53;;
11616;SDS011;5864;52.998;9.068;2023-01-10T13:14:26;19.77;;;6.93;;
11616;SDS011;5864;52.998;9.068;2023-01-10T13:17:02;14.50;;;6.80;;
11616;SDS011;5864;52.998;9.068;2023-01-10T13:19:35;16.20;;;6.97;;
11616;SDS011;5864;52.998;9.068;2023-01-10T13:22:17;21.27;;;7.23;;
11616;SDS011;5864;52.998;9.068;2023-01-10T13:24:53;17.27;;;7.30;;
11616;SDS011;5864;52.998;9.068;2023-01-10T13:27:24;17.87;;;7.57;;
11616;SDS011;5864;52.998;9.068;2023-01-10T13:29:56;21.13;;;7.57;;
11616;SDS011;5864;52.998;9.068;2023-01-10T13:32:25;17.77;;;7.00;;
11616;SDS011;5864;52.998;9.068;2023-01-10T13:34:55;23.77;;;7.13;;
11616;SDS011;5864;52.998;9.068;2023-01-10T13:37:35;18.07;;;7.40;;
11616;SDS011;5864;52.998;9.068;2023-01-10T13:40:05;19.57;;;7.43;;
11616;SDS011;5864;52.998;9.068;2023-01-10T13:42:35;19.57;;;7.07;;
11616;SDS011;5864;52.998;9.068;2023-01-10T13:45:25;20.17;;;6.83;;
11616;SDS011;5864;52.998;9.068;2023-01-10T13:48:00;23.13;;;7.03;;
11616;SDS011;5864;52.998;9.068;2023-01-10T13:53:44;23.70;;;7.53;;
11616;SDS011;5864;52.998;9.068;2023-01-10T13:56:29;19.20;;;6.10;;
11616;SDS011;5864;52.998;9.068;2023-01-10T13:59:00;21.50;;;6.87;;
11616;SDS011;5864;52.998;9.068;2023-01-10T14:01:49;20.67;;;6.57;;
11616;SDS011;5864;52.998;9.068;2023-01-10T14:04:36;22.17;;;6.87;;
11616;SDS011;5864;52.998;9.068;2023-01-10T14:07:12;23.83;;;6.43;;
11616;SDS011;5864;52.998;9.068;2023-01-10T14:09:43;18.87;;;5.70;;
11616;SDS011;5864;52.998;9.068;2023-01-10T14:12:16;20.33;;;6.57;;
11616;SDS011;5864;52.998;9.068;2023-01-10T14:14:53;17.97;;;6.33;;
11616;SDS011;5864;52.998;9.068;2023-01-10T14:17:24;19.07;;;6.60;;
11616;SDS011;5864;52.998;9.068;2023-01-10T14:20:00;16.97;;;6.80;;
11616;SDS011;5864;52.998;9.068;2023-01-10T14:22:40;19.80;;;6.60;;
11616;SDS011;5864;52.998;9.068;2023-01-10T14:25:23;37.50;;;9.60;;
11616;SDS011;5864;52.998;9.068;2023-01-10T14:27:52;21.33;;;8.53;;
11616;SDS011;5864;52.998;9.068;2023-01-10T14:30:24;22.80;;;8.17;;
11616;SDS011;5864;52.998;9.068;2023-01-10T14:32:55;19.20;;;6.93;;
11616;SDS011;5864;52.998;9.068;2023-01-10T14:35:27;20.33;;;6.83;;
11616;SDS011;5864;52.998;9.068;2023-01-10T14:38:00;25.80;;;6.83;;
11616;SDS011;5864;52.998;9.068;2023-01-10T14:40:32;17.67;;;7.13;;
11616;SDS011;5864;52.998;9.068;2023-01-10T14:43:05;20.20;;;6.57;;
11616;SDS011;5864;52.998;9.068;2023-01-10T14:45:42;16.87;;;7.53;;
11616;SDS011;5864;52.998;9.068;2023-01-10T14:48:21;19.07;;;7.53;;
11616;SDS011;5864;52.998;9.068;2023-01-10T14:51:07;23.73;;;8.23;;
11616;SDS011;5864;52.998;9.068;2023-01-10T14:53:43;21.40;;;7.77;;
11616;SDS011;5864;52.998;9.068;2023-01-10T14:56:17;17.43;;;7.53;;
11616;SDS011;5864;52.998;9.068;2023-01-10T14:58:45;16.30;;;8.00;;
11616;SDS011;5864;52.998;9.068;2023-01-10T15:01:15;22.60;;;8.87;;
11616;SDS011;5864;52.998;9.068;2023-01-10T15:03:48;25.43;;;9.53;;
11616;SDS011;5864;52.998;9.068;2023-01-10T15:06:15;22.83;;;9.53;;
11616;SDS011;5864;52.998;9.068;2023-01-10T15:08:43;21.67;;;10.03;;
11616;SDS011;5864;52.998;9.068;2023-01-10T15:11:10;21.23;;;9.40;;
11616;SDS011;5864;52.998;9.068;2023-01-10T15:13:42;18.53;;;8.87;;
11616;SDS011;5864;52.998;9.068;2023-01-10T15:16:17;24.07;;;9.53;;
11616;SDS011;5864;52.998;9.068;2023-01-10T15:18:47;27.40;;;9.30;;
11616;SDS011;5864;52.998;9.068;2023-01-10T15:21:16;23.10;;;9.10;;
11616;SDS011;5864;52.998;9.068;2023-01-10T15:23:46;24.00;;;10.50;;
11616;SDS011;5864;52.998;9.068;2023-01-10T15:26:15;23.33;;;9.03;;
11616;SDS011;5864;52.998;9.068;2023-01-10T15:28:47;22.63;;;9.50;;
11616;SDS011;5864;52.998;9.068;2023-01-10T15:31:32;24.10;;;9.20;;